sensor_id;sensor_type;location;lat;lon;timestamp;P1;durP1;ratioP1;P2;durP2;ratioP2
40252;SDS011;25972;51.854;4.534;2023-12-20T00:02:00;17.13;;;12.73;;
40252;SDS011;25972;51.854;4.534;2023-12-20T00:04:27;13.38;;;11.98;;
40252;SDS011;25972;51.854;4.534;2023-12-20T00:06:53;19.05;;;12.05;;
40252;SDS011;25972;51.854;4.534;2023-12-20T00:09:19;13.43;;;12.13;;
40252;SDS011;25972;51.854;4.534;2023-12-20T00:11:49;20.70;;;12.77;;
40252;SDS011;25972;51.854;4.534;2023-12-20T00:14:16;21.08;;;12.98;;
40252;SDS011;25972;51.854;4.534;2023-12-20T00:16:42;13.18;;;11.65;;
40252;SDS011;25972;51.854;4.534;2023-12-20T00:19:08;15.93;;;12.20;;
40252;SDS011;25972;51.854;4.534;2023-12-20T00:21:34;24.38;;;12.73;;
40252;SDS011;25972;51.854;4.534;2023-12-20T00:24:01;18.92;;;12.48;;
40252;SDS011;25972;51.854;4.534;2023-12-20T00:26:27;14.68;;;12.73;;
40252;SDS011;25972;51.854;4.534;2023-12-20T00:28:53;17.02;;;12.73;;
40252;SDS011;25972;51.854;4.534;2023-12-20T00:31:20;23.05;;;13.27;;
40252;SDS011;25972;51.854;4.534;2023-12-20T00:33:46;12.27;;;11.35;;
40252;SDS011;25972;51.854;4.534;2023-12-20T00:36:12;18.33;;;13.38;;
40252;SDS011;25972;51.854;4.534;2023-12-20T00:38:38;15.07;;;13.07;;
40252;SDS011;25972;51.854;4.534;2023-12-20T00:41:04;20.95;;;13.55;;
40252;SDS011;25972;51.854;4.534;2023-12-20T00:43:30;14.75;;;13.25;;
40252;SDS011;25972;51.854;4.534;2023-12-20T00:45:56;18.25;;;13.98;;
40252;SDS011;25972;51.854;4.534;2023-12-20T00:48:26;23.10;;;14.30;;
40252;SDS011;25972;51.854;4.534;2023-12-20T00:50:52;24.25;;;13.32;;
40252;SDS011;25972;51.854;4.534;2023-12-20T00:53:18;20.05;;;14.05;;
40252;SDS011;25972;51.854;4.534;2023-12-20T00:55:44;17.73;;;13.27;;
40252;SDS011;25972;51.854;4.534;2023-12-20T00:58:10;23.83;;;13.45;;
40252;SDS011;25972;51.854;4.534;2023-12-20T01:00:36;18.63;;;13.80;;
40252;SDS011;25972;51.854;4.534;2023-12-20T01:03:02;20.30;;;13.15;;
40252;SDS011;25972;51.854;4.534;2023-12-20T01:05:30;23.15;;;14.45;;
40252;SDS011;25972;51.854;4.534;2023-12-20T01:07:56;21.92;;;12.70;;
40252;SDS011;25972;51.854;4.534;2023-12-20T01:10:22;21.50;;;12.50;;
40252;SDS011;25972;51.854;4.534;2023-12-20T01:12:48;20.00;;;14.10;;
40252;SDS011;25972;51.854;4.534;2023-12-20T01:15:14;17.75;;;13.15;;
40252;SDS011;25972;51.854;4.534;2023-12-20T01:17:43;19.90;;;13.75;;
40252;SDS011;25972;51.854;4.534;2023-12-20T01:20:09;22.13;;;13.55;;
40252;SDS011;25972;51.854;4.534;2023-12-20T01:22:37;26.98;;;14.15;;
40252;SDS011;25972;51.854;4.534;2023-12-20T01:25:03;21.23;;;13.68;;
40252;SDS011;25972;51.854;4.534;2023-12-20T01:27:29;21.45;;;13.15;;
40252;SDS011;25972;51.854;4.534;2023-12-20T01:29:56;21.35;;;12.85;;
40252;SDS011;25972;51.854;4.534;2023-12-20T01:32:22;20.60;;;13.50;;
40252;SDS011;25972;51.854;4.534;2023-12-20T01:34:48;21.45;;;12.70;;
40252;SDS011;25972;51.854;4.534;2023-12-20T01:37:14;19.00;;;14.15;;
40252;SDS011;25972;51.854;4.534;2023-12-20T01:39:41;16.20;;;12.57;;
40252;SDS011;25972;51.854;4.534;2023-12-20T01:42:07;15.20;;;13.02;;
40252;SDS011;25972;51.854;4.534;2023-12-20T01:44:33;14.15;;;12.40;;
40252;SDS011;25972;51.854;4.534;2023-12-20T01:46:59;16.38;;;12.50;;
40252;SDS011;25972;51.854;4.534;2023-12-20T01:49:26;21.08;;;12.85;;
40252;SDS011;25972;51.854;4.534;2023-12-20T01:51:52;17.67;;;13.02;;
40252;SDS011;25972;51.854;4.534;2023-12-20T01:54:18;19.13;;;12.27;;
40252;SDS011;25972;51.854;4.534;2023-12-20T01:56:47;20.73;;;14.00;;
40252;SDS011;25972;51.854;4.534;2023-12-20T01:59:15;20.75;;;12.95;;
40252;SDS011;25972;51.854;4.534;2023-12-20T02:01:41;17.35;;;12.85;;
40252;SDS011;25972;51.854;4.534;2023-12-20T02:04:08;18.55;;;13.52;;
40252;SDS011;25972;51.854;4.534;2023-12-20T02:06:34;24.23;;;14.50;;
40252;SDS011;25972;51.854;4.534;2023-12-20T02:09:00;15.55;;;11.77;;
40252;SDS011;25972;51.854;4.534;2023-12-20T02:11:27;24.70;;;13.40;;
40252;SDS011;25972;51.854;4.534;2023-12-20T02:13:55;20.58;;;13.95;;
40252;SDS011;25972;51.854;4.534;2023-12-20T02:16:21;20.63;;;14.10;;
40252;SDS011;25972;51.854;4.534;2023-12-20T02:18:53;26.13;;;14.35;;
40252;SDS011;25972;51.854;4.534;2023-12-20T02:23:52;12.35;;;11.25;;
40252;SDS011;25972;51.854;4.534;2023-12-20T02:26:18;15.95;;;11.93;;
40252;SDS011;25972;51.854;4.534;2023-12-20T02:28:44;13.73;;;12.10;;
40252;SDS011;25972;51.854;4.534;2023-12-20T02:31:10;20.42;;;13.05;;
40252;SDS011;25972;51.854;4.534;2023-12-20T02:33:36;13.63;;;12.40;;
40252;SDS011;25972;51.854;4.534;2023-12-20T02:36:04;29.48;;;12.73;;
40252;SDS011;25972;51.854;4.534;2023-12-20T02:38:33;20.95;;;13.40;;
40252;SDS011;25972;51.854;4.534;2023-12-20T02:40:59;21.95;;;13.10;;
40252;SDS011;25972;51.854;4.534;2023-12-20T02:43:25;15.63;;;12.63;;
40252;SDS011;25972;51.854;4.534;2023-12-20T02:45:51;19.65;;;13.80;;
40252;SDS011;25972;51.854;4.534;2023-12-20T02:48:17;16.65;;;12.07;;
40252;SDS011;25972;51.854;4.534;2023-12-20T02:50:43;13.80;;;11.35;;
40252;SDS011;25972;51.854;4.534;2023-12-20T02:53:11;17.88;;;13.77;;
40252;SDS011;25972;51.854;4.534;2023-12-20T02:55:39;17.77;;;14.52;;
40252;SDS011;25972;51.854;4.534;2023-12-20T02:58:05;19.38;;;14.48;;
40252;SDS011;25972;51.854;4.534;2023-12-20T03:00:31;20.25;;;13.45;;
40252;SDS011;25972;51.854;4.534;2023-12-20T03:02:57;17.83;;;12.77;;
40252;SDS011;25972;51.854;4.534;2023-12-20T03:05:24;15.88;;;12.68;;
40252;SDS011;25972;51.854;4.534;2023-12-20T03:07:50;20.55;;;13.35;;
40252;SDS011;25972;51.854;4.534;2023-12-20T03:10:18;26.55;;;13.23;;
40252;SDS011;25972;51.854;4.534;2023-12-20T03:12:45;13.95;;;12.55;;
40252;SDS011;25972;51.854;4.534;2023-12-20T03:15:11;16.13;;;12.65;;
40252;SDS011;25972;51.854;4.534;2023-12-20T03:17:37;19.30;;;13.50;;
40252;SDS011;25972;51.854;4.534;2023-12-20T03:20:04;17.58;;;13.98;;
40252;SDS011;25972;51.854;4.534;2023-12-20T03:22:30;23.65;;;13.38;;
40252;SDS011;25972;51.854;4.534;2023-12-20T03:24:56;18.50;;;13.52;;
40252;SDS011;25972;51.854;4.534;2023-12-20T03:27:22;15.57;;;13.52;;
40252;SDS011;25972;51.854;4.534;2023-12-20T03:29:52;14.93;;;13.23;;
40252;SDS011;25972;51.854;4.534;2023-12-20T03:32:18;23.25;;;14.77;;
40252;SDS011;25972;51.854;4.534;2023-12-20T03:34:44;20.88;;;13.15;;
40252;SDS011;25972;51.854;4.534;2023-12-20T03:37:10;15.63;;;14.13;;
40252;SDS011;25972;51.854;4.534;2023-12-20T03:39:36;16.35;;;14.00;;
40252;SDS011;25972;51.854;4.534;2023-12-20T03:42:02;25.20;;;14.88;;
40252;SDS011;25972;51.854;4.534;2023-12-20T03:44:29;22.33;;;14.95;;
40252;SDS011;25972;51.854;4.534;2023-12-20T03:46:56;19.88;;;14.40;;
40252;SDS011;25972;51.854;4.534;2023-12-20T03:49:22;22.02;;;14.05;;
40252;SDS011;25972;51.854;4.534;2023-12-20T03:51:48;16.05;;;14.30;;
40252;SDS011;25972;51.854;4.534;2023-12-20T03:54:14;30.65;;;14.23;;
40252;SDS011;25972;51.854;4.534;2023-12-20T03:56:40;16.00;;;14.13;;
40252;SDS011;25972;51.854;4.534;2023-12-20T03:59:05;25.38;;;14.63;;
40252;SDS011;25972;51.854;4.534;2023-12-20T04:01:31;20.40;;;14.20;;
40252;SDS011;25972;51.854;4.534;2023-12-20T04:04:01;18.48;;;13.90;;
40252;SDS011;25972;51.854;4.534;2023-12-20T04:06:27;17.92;;;15.45;;
40252;SDS011;25972;51.854;4.534;2023-12-20T04:08:53;14.35;;;13.25;;
40252;SDS011;25972;51.854;4.534;2023-12-20T04:11:19;17.58;;;14.30;;
40252;SDS011;25972;51.854;4.534;2023-12-20T04:13:45;17.10;;;14.98;;
40252;SDS011;25972;51.854;4.534;2023-12-20T04:16:11;19.60;;;14.90;;
40252;SDS011;25972;51.854;4.534;2023-12-20T04:18:37;15.90;;;14.23;;
40252;SDS011;25972;51.854;4.534;2023-12-20T04:21:05;17.42;;;14.25;;
40252;SDS011;25972;51.854;4.534;2023-12-20T04:23:32;22.92;;;15.13;;
40252;SDS011;25972;51.854;4.534;2023-12-20T04:25:57;14.27;;;13.27;;
40252;SDS011;25972;51.854;4.534;2023-12-20T04:28:23;18.13;;;14.50;;
40252;SDS011;25972;51.854;4.534;2023-12-20T04:30:53;17.58;;;14.77;;
40252;SDS011;25972;51.854;4.534;2023-12-20T04:33:19;15.88;;;14.20;;
40252;SDS011;25972;51.854;4.534;2023-12-20T04:35:45;15.20;;;13.90;;
40252;SDS011;25972;51.854;4.534;2023-12-20T04:38:13;18.48;;;15.15;;
40252;SDS011;25972;51.854;4.534;2023-12-20T04:40:39;17.73;;;14.60;;
40252;SDS011;25972;51.854;4.534;2023-12-20T04:43:06;15.68;;;14.10;;
40252;SDS011;25972;51.854;4.534;2023-12-20T04:45:32;14.20;;;13.02;;
40252;SDS011;25972;51.854;4.534;2023-12-20T04:47:58;15.77;;;13.65;;
40252;SDS011;25972;51.854;4.534;2023-12-20T04:50:24;14.82;;;13.40;;
40252;SDS011;25972;51.854;4.534;2023-12-20T04:52:50;20.63;;;14.95;;
40252;SDS011;25972;51.854;4.534;2023-12-20T04:55:18;18.48;;;13.63;;
40252;SDS011;25972;51.854;4.534;2023-12-20T04:57:44;16.15;;;14.30;;
40252;SDS011;25972;51.854;4.534;2023-12-20T05:00:10;20.77;;;14.73;;
40252;SDS011;25972;51.854;4.534;2023-12-20T05:02:37;13.95;;;12.95;;
40252;SDS011;25972;51.854;4.534;2023-12-20T05:05:03;16.13;;;14.60;;
40252;SDS011;25972;51.854;4.534;2023-12-20T05:07:30;27.17;;;15.25;;
40252;SDS011;25972;51.854;4.534;2023-12-20T05:09:56;15.57;;;14.38;;
40252;SDS011;25972;51.854;4.534;2023-12-20T05:12:24;19.00;;;15.48;;
40252;SDS011;25972;51.854;4.534;2023-12-20T05:14:51;20.83;;;15.05;;
40252;SDS011;25972;51.854;4.534;2023-12-20T05:17:17;15.10;;;13.57;;
40252;SDS011;25972;51.854;4.534;2023-12-20T05:19:45;24.40;;;15.75;;
40252;SDS011;25972;51.854;4.534;2023-12-20T05:22:11;17.83;;;15.10;;
40252;SDS011;25972;51.854;4.534;2023-12-20T05:24:37;15.55;;;14.00;;
40252;SDS011;25972;51.854;4.534;2023-12-20T05:27:03;16.70;;;14.98;;
40252;SDS011;25972;51.854;4.534;2023-12-20T05:29:31;23.88;;;13.95;;
40252;SDS011;25972;51.854;4.534;2023-12-20T05:31:58;16.45;;;14.52;;
40252;SDS011;25972;51.854;4.534;2023-12-20T05:34:24;16.02;;;14.45;;
40252;SDS011;25972;51.854;4.534;2023-12-20T05:36:50;17.10;;;14.68;;
40252;SDS011;25972;51.854;4.534;2023-12-20T05:39:16;16.38;;;13.88;;
40252;SDS011;25972;51.854;4.534;2023-12-20T05:41:42;20.55;;;14.50;;
40252;SDS011;25972;51.854;4.534;2023-12-20T05:44:08;21.42;;;14.00;;
40252;SDS011;25972;51.854;4.534;2023-12-20T05:46:35;14.93;;;13.40;;
40252;SDS011;25972;51.854;4.534;2023-12-20T05:49:01;19.73;;;15.07;;
40252;SDS011;25972;51.854;4.534;2023-12-20T05:51:27;20.08;;;14.40;;
40252;SDS011;25972;51.854;4.534;2023-12-20T05:53:53;15.05;;;13.52;;
40252;SDS011;25972;51.854;4.534;2023-12-20T05:56:19;19.42;;;14.20;;
40252;SDS011;25972;51.854;4.534;2023-12-20T05:58:45;18.33;;;13.20;;
40252;SDS011;25972;51.854;4.534;2023-12-20T06:01:11;33.47;;;14.43;;
40252;SDS011;25972;51.854;4.534;2023-12-20T06:03:41;17.35;;;13.80;;
40252;SDS011;25972;51.854;4.534;2023-12-20T06:06:08;15.32;;;13.75;;
40252;SDS011;25972;51.854;4.534;2023-12-20T06:08:35;19.52;;;13.60;;
40252;SDS011;25972;51.854;4.534;2023-12-20T06:11:01;15.80;;;13.93;;
40252;SDS011;25972;51.854;4.534;2023-12-20T06:13:27;24.30;;;14.57;;
40252;SDS011;25972;51.854;4.534;2023-12-20T06:15:54;22.10;;;14.30;;
40252;SDS011;25972;51.854;4.534;2023-12-20T06:18:20;14.48;;;13.23;;
40252;SDS011;25972;51.854;4.534;2023-12-20T06:20:47;14.02;;;12.70;;
40252;SDS011;25972;51.854;4.534;2023-12-20T06:23:13;16.38;;;13.65;;
40252;SDS011;25972;51.854;4.534;2023-12-20T06:25:39;19.83;;;13.95;;
40252;SDS011;25972;51.854;4.534;2023-12-20T06:28:05;25.13;;;13.63;;
40252;SDS011;25972;51.854;4.534;2023-12-20T06:30:31;24.98;;;14.35;;
40252;SDS011;25972;51.854;4.534;2023-12-20T06:32:58;13.70;;;12.52;;
40252;SDS011;25972;51.854;4.534;2023-12-20T06:35:24;18.48;;;14.35;;
40252;SDS011;25972;51.854;4.534;2023-12-20T06:37:52;23.08;;;15.52;;
40252;SDS011;25972;51.854;4.534;2023-12-20T06:40:18;13.38;;;12.48;;
40252;SDS011;25972;51.854;4.534;2023-12-20T06:42:45;21.60;;;13.48;;
40252;SDS011;25972;51.854;4.534;2023-12-20T06:45:11;13.32;;;12.30;;
40252;SDS011;25972;51.854;4.534;2023-12-20T06:47:37;14.40;;;13.20;;
40252;SDS011;25972;51.854;4.534;2023-12-20T06:50:04;13.75;;;12.43;;
40252;SDS011;25972;51.854;4.534;2023-12-20T06:52:30;14.20;;;12.75;;
40252;SDS011;25972;51.854;4.534;2023-12-20T06:54:58;18.27;;;13.30;;
40252;SDS011;25972;51.854;4.534;2023-12-20T06:57:24;13.95;;;12.55;;
40252;SDS011;25972;51.854;4.534;2023-12-20T06:59:51;19.17;;;13.98;;
40252;SDS011;25972;51.854;4.534;2023-12-20T07:02:17;15.70;;;13.48;;
40252;SDS011;25972;51.854;4.534;2023-12-20T07:04:43;14.68;;;12.90;;
40252;SDS011;25972;51.854;4.534;2023-12-20T07:07:09;17.80;;;13.15;;
40252;SDS011;25972;51.854;4.534;2023-12-20T07:09:35;19.23;;;12.57;;
40252;SDS011;25972;51.854;4.534;2023-12-20T07:12:04;17.95;;;12.48;;
40252;SDS011;25972;51.854;4.534;2023-12-20T07:14:30;13.63;;;12.52;;
40252;SDS011;25972;51.854;4.534;2023-12-20T07:16:56;13.45;;;12.10;;
40252;SDS011;25972;51.854;4.534;2023-12-20T07:19:22;14.20;;;12.80;;
40252;SDS011;25972;51.854;4.534;2023-12-20T07:21:48;27.90;;;13.65;;
40252;SDS011;25972;51.854;4.534;2023-12-20T07:24:15;15.43;;;13.00;;
40252;SDS011;25972;51.854;4.534;2023-12-20T07:26:41;14.60;;;12.65;;
40252;SDS011;25972;51.854;4.534;2023-12-20T07:29:08;21.60;;;13.40;;
40252;SDS011;25972;51.854;4.534;2023-12-20T07:31:34;13.82;;;12.40;;
40252;SDS011;25972;51.854;4.534;2023-12-20T07:34:00;14.30;;;12.32;;
40252;SDS011;25972;51.854;4.534;2023-12-20T07:36:26;16.20;;;12.95;;
40252;SDS011;25972;51.854;4.534;2023-12-20T07:38:52;20.15;;;13.02;;
40252;SDS011;25972;51.854;4.534;2023-12-20T07:41:18;14.70;;;13.15;;
40252;SDS011;25972;51.854;4.534;2023-12-20T07:43:48;15.25;;;12.60;;
40252;SDS011;25972;51.854;4.534;2023-12-20T07:46:16;18.15;;;13.60;;
40252;SDS011;25972;51.854;4.534;2023-12-20T07:48:43;16.45;;;12.27;;
40252;SDS011;25972;51.854;4.534;2023-12-20T07:51:10;17.45;;;13.88;;
40252;SDS011;25972;51.854;4.534;2023-12-20T07:53:36;14.13;;;13.10;;
40252;SDS011;25972;51.854;4.534;2023-12-20T07:56:03;22.33;;;13.77;;
40252;SDS011;25972;51.854;4.534;2023-12-20T07:58:39;23.02;;;13.68;;
40252;SDS011;25972;51.854;4.534;2023-12-20T08:01:05;17.55;;;14.07;;
40252;SDS011;25972;51.854;4.534;2023-12-20T08:03:33;14.27;;;13.00;;
40252;SDS011;25972;51.854;4.534;2023-12-20T08:05:59;15.50;;;13.38;;
40252;SDS011;25972;51.854;4.534;2023-12-20T08:08:25;18.27;;;13.35;;
40252;SDS011;25972;51.854;4.534;2023-12-20T08:10:51;19.55;;;13.60;;
40252;SDS011;25972;51.854;4.534;2023-12-20T08:13:17;14.52;;;12.88;;
40252;SDS011;25972;51.854;4.534;2023-12-20T08:15:43;16.50;;;12.18;;
40252;SDS011;25972;51.854;4.534;2023-12-20T08:18:09;20.75;;;13.60;;
40252;SDS011;25972;51.854;4.534;2023-12-20T08:20:37;22.02;;;13.23;;
40252;SDS011;25972;51.854;4.534;2023-12-20T08:23:03;14.77;;;12.98;;
40252;SDS011;25972;51.854;4.534;2023-12-20T08:25:29;19.77;;;13.02;;
40252;SDS011;25972;51.854;4.534;2023-12-20T08:27:55;21.60;;;13.07;;
40252;SDS011;25972;51.854;4.534;2023-12-20T08:30:21;20.00;;;13.45;;
40252;SDS011;25972;51.854;4.534;2023-12-20T08:32:47;21.20;;;13.55;;
40252;SDS011;25972;51.854;4.534;2023-12-20T08:35:13;23.25;;;13.90;;
40252;SDS011;25972;51.854;4.534;2023-12-20T08:37:40;18.63;;;13.93;;
40252;SDS011;25972;51.854;4.534;2023-12-20T08:40:07;14.48;;;13.10;;
40252;SDS011;25972;51.854;4.534;2023-12-20T08:42:33;13.75;;;12.45;;
40252;SDS011;25972;51.854;4.534;2023-12-20T08:45:00;18.05;;;13.32;;
40252;SDS011;25972;51.854;4.534;2023-12-20T08:47:26;19.27;;;13.05;;
40252;SDS011;25972;51.854;4.534;2023-12-20T08:49:55;18.08;;;12.40;;
40252;SDS011;25972;51.854;4.534;2023-12-20T08:52:25;17.83;;;13.80;;
40252;SDS011;25972;51.854;4.534;2023-12-20T08:54:55;14.52;;;12.85;;
40252;SDS011;25972;51.854;4.534;2023-12-20T08:57:22;24.33;;;13.25;;
40252;SDS011;25972;51.854;4.534;2023-12-20T08:59:51;17.67;;;13.35;;
40252;SDS011;25972;51.854;4.534;2023-12-20T09:02:17;17.95;;;13.15;;
40252;SDS011;25972;51.854;4.534;2023-12-20T09:04:43;19.67;;;12.65;;
40252;SDS011;25972;51.854;4.534;2023-12-20T09:07:20;13.68;;;12.43;;
40252;SDS011;25972;51.854;4.534;2023-12-20T09:09:46;12.70;;;11.88;;
40252;SDS011;25972;51.854;4.534;2023-12-20T09:12:14;15.88;;;12.63;;
40252;SDS011;25972;51.854;4.534;2023-12-20T09:14:40;17.13;;;13.82;;
40252;SDS011;25972;51.854;4.534;2023-12-20T09:17:06;16.70;;;13.80;;
40252;SDS011;25972;51.854;4.534;2023-12-20T09:19:34;13.50;;;12.35;;
40252;SDS011;25972;51.854;4.534;2023-12-20T09:22:00;14.65;;;12.98;;
40252;SDS011;25972;51.854;4.534;2023-12-20T09:24:27;17.50;;;14.23;;
40252;SDS011;25972;51.854;4.534;2023-12-20T09:26:53;14.50;;;13.38;;
40252;SDS011;25972;51.854;4.534;2023-12-20T09:29:20;20.50;;;13.90;;
40252;SDS011;25972;51.854;4.534;2023-12-20T09:31:46;21.40;;;14.57;;
40252;SDS011;25972;51.854;4.534;2023-12-20T09:34:13;18.73;;;13.88;;
40252;SDS011;25972;51.854;4.534;2023-12-20T09:36:40;24.45;;;13.95;;
40252;SDS011;25972;51.854;4.534;2023-12-20T09:39:11;16.63;;;13.70;;
40252;SDS011;25972;51.854;4.534;2023-12-20T09:41:38;21.25;;;14.80;;
40252;SDS011;25972;51.854;4.534;2023-12-20T09:44:08;16.38;;;13.73;;
40252;SDS011;25972;51.854;4.534;2023-12-20T09:46:39;14.05;;;12.70;;
40252;SDS011;25972;51.854;4.534;2023-12-20T09:49:09;14.52;;;13.05;;
40252;SDS011;25972;51.854;4.534;2023-12-20T09:51:36;19.17;;;13.98;;
40252;SDS011;25972;51.854;4.534;2023-12-20T09:54:02;14.85;;;13.30;;
40252;SDS011;25972;51.854;4.534;2023-12-20T09:56:29;14.85;;;13.52;;
40252;SDS011;25972;51.854;4.534;2023-12-20T09:58:55;14.25;;;13.10;;
40252;SDS011;25972;51.854;4.534;2023-12-20T10:01:22;13.95;;;12.80;;
40252;SDS011;25972;51.854;4.534;2023-12-20T10:03:50;14.77;;;13.30;;
40252;SDS011;25972;51.854;4.534;2023-12-20T10:06:19;15.40;;;13.40;;
40252;SDS011;25972;51.854;4.534;2023-12-20T10:08:45;18.75;;;13.60;;
40252;SDS011;25972;51.854;4.534;2023-12-20T10:11:11;15.60;;;13.88;;
40252;SDS011;25972;51.854;4.534;2023-12-20T10:13:39;18.70;;;14.85;;
40252;SDS011;25972;51.854;4.534;2023-12-20T10:16:06;15.95;;;13.60;;
40252;SDS011;25972;51.854;4.534;2023-12-20T10:18:32;18.77;;;13.90;;
40252;SDS011;25972;51.854;4.534;2023-12-20T10:21:00;17.75;;;15.23;;
40252;SDS011;25972;51.854;4.534;2023-12-20T10:23:26;14.85;;;13.43;;
40252;SDS011;25972;51.854;4.534;2023-12-20T10:25:58;16.13;;;14.23;;
40252;SDS011;25972;51.854;4.534;2023-12-20T10:28:25;18.80;;;13.73;;
40252;SDS011;25972;51.854;4.534;2023-12-20T10:30:53;27.83;;;14.15;;
40252;SDS011;25972;51.854;4.534;2023-12-20T10:33:25;19.10;;;14.25;;
40252;SDS011;25972;51.854;4.534;2023-12-20T10:35:52;20.00;;;14.02;;
40252;SDS011;25972;51.854;4.534;2023-12-20T10:38:20;17.48;;;14.00;;
40252;SDS011;25972;51.854;4.534;2023-12-20T10:40:47;16.23;;;14.52;;
40252;SDS011;25972;51.854;4.534;2023-12-20T10:43:14;14.10;;;12.65;;
40252;SDS011;25972;51.854;4.534;2023-12-20T10:45:41;15.65;;;13.43;;
40252;SDS011;25972;51.854;4.534;2023-12-20T10:48:09;15.77;;;13.85;;
40252;SDS011;25972;51.854;4.534;2023-12-20T10:50:37;19.45;;;14.43;;
40252;SDS011;25972;51.854;4.534;2023-12-20T10:53:04;21.48;;;14.88;;
40252;SDS011;25972;51.854;4.534;2023-12-20T10:55:36;14.90;;;13.55;;
40252;SDS011;25972;51.854;4.534;2023-12-20T10:58:04;21.38;;;14.48;;
40252;SDS011;25972;51.854;4.534;2023-12-20T11:00:35;23.95;;;14.73;;
40252;SDS011;25972;51.854;4.534;2023-12-20T11:03:04;16.70;;;14.95;;
40252;SDS011;25972;51.854;4.534;2023-12-20T11:05:33;16.90;;;14.07;;
40252;SDS011;25972;51.854;4.534;2023-12-20T11:08:07;18.38;;;14.52;;
40252;SDS011;25972;51.854;4.534;2023-12-20T11:10:39;16.05;;;14.35;;
40252;SDS011;25972;51.854;4.534;2023-12-20T11:13:16;17.63;;;15.00;;
40252;SDS011;25972;51.854;4.534;2023-12-20T11:15:45;22.23;;;15.05;;
40252;SDS011;25972;51.854;4.534;2023-12-20T11:18:12;15.73;;;14.25;;
40252;SDS011;25972;51.854;4.534;2023-12-20T11:20:38;19.95;;;15.63;;
40252;SDS011;25972;51.854;4.534;2023-12-20T11:23:05;20.88;;;14.48;;
40252;SDS011;25972;51.854;4.534;2023-12-20T11:25:46;21.23;;;15.77;;
40252;SDS011;25972;51.854;4.534;2023-12-20T11:28:13;22.83;;;14.45;;
40252;SDS011;25972;51.854;4.534;2023-12-20T11:30:45;15.43;;;14.13;;
40252;SDS011;25972;51.854;4.534;2023-12-20T11:33:12;18.83;;;15.43;;
40252;SDS011;25972;51.854;4.534;2023-12-20T11:35:39;23.08;;;15.70;;
40252;SDS011;25972;51.854;4.534;2023-12-20T11:38:07;20.85;;;16.30;;
40252;SDS011;25972;51.854;4.534;2023-12-20T11:40:34;16.20;;;14.70;;
40252;SDS011;25972;51.854;4.534;2023-12-20T11:43:03;20.00;;;15.57;;
40252;SDS011;25972;51.854;4.534;2023-12-20T11:48:00;18.48;;;15.43;;
40252;SDS011;25972;51.854;4.534;2023-12-20T11:50:27;18.90;;;15.27;;
40252;SDS011;25972;51.854;4.534;2023-12-20T11:52:55;20.52;;;15.13;;
40252;SDS011;25972;51.854;4.534;2023-12-20T11:55:21;17.35;;;15.65;;
40252;SDS011;25972;51.854;4.534;2023-12-20T11:57:47;15.40;;;14.30;;
40252;SDS011;25972;51.854;4.534;2023-12-20T12:00:15;19.02;;;15.05;;
40252;SDS011;25972;51.854;4.534;2023-12-20T12:02:42;16.25;;;14.52;;
40252;SDS011;25972;51.854;4.534;2023-12-20T12:05:20;16.63;;;15.00;;
40252;SDS011;25972;51.854;4.534;2023-12-20T12:07:46;15.52;;;14.52;;
40252;SDS011;25972;51.854;4.534;2023-12-20T12:10:12;16.67;;;15.30;;
40252;SDS011;25972;51.854;4.534;2023-12-20T12:12:38;16.63;;;15.02;;
40252;SDS011;25972;51.854;4.534;2023-12-20T12:15:05;17.70;;;16.15;;
40252;SDS011;25972;51.854;4.534;2023-12-20T12:17:34;20.80;;;15.77;;
40252;SDS011;25972;51.854;4.534;2023-12-20T12:20:03;23.13;;;16.52;;
40252;SDS011;25972;51.854;4.534;2023-12-20T12:22:31;17.73;;;16.13;;
40252;SDS011;25972;51.854;4.534;2023-12-20T12:24:58;28.05;;;16.55;;
40252;SDS011;25972;51.854;4.534;2023-12-20T12:27:34;16.40;;;15.13;;
40252;SDS011;25972;51.854;4.534;2023-12-20T12:30:00;18.90;;;16.25;;
40252;SDS011;25972;51.854;4.534;2023-12-20T12:32:28;17.83;;;16.15;;
40252;SDS011;25972;51.854;4.534;2023-12-20T12:34:56;16.83;;;15.30;;
40252;SDS011;25972;51.854;4.534;2023-12-20T12:37:22;17.25;;;15.68;;
40252;SDS011;25972;51.854;4.534;2023-12-20T12:39:53;20.63;;;16.23;;
40252;SDS011;25972;51.854;4.534;2023-12-20T12:42:20;16.70;;;15.40;;
40252;SDS011;25972;51.854;4.534;2023-12-20T12:44:47;20.75;;;16.20;;
40252;SDS011;25972;51.854;4.534;2023-12-20T12:47:12;16.63;;;15.02;;
40252;SDS011;25972;51.854;4.534;2023-12-20T12:49:40;20.92;;;16.30;;
40252;SDS011;25972;51.854;4.534;2023-12-20T12:52:08;19.20;;;16.33;;
40252;SDS011;25972;51.854;4.534;2023-12-20T12:54:37;19.85;;;15.57;;
40252;SDS011;25972;51.854;4.534;2023-12-20T12:57:03;21.95;;;16.33;;
40252;SDS011;25972;51.854;4.534;2023-12-20T12:59:29;24.77;;;16.27;;
40252;SDS011;25972;51.854;4.534;2023-12-20T13:01:55;17.55;;;15.18;;
40252;SDS011;25972;51.854;4.534;2023-12-20T13:04:22;20.80;;;15.98;;
40252;SDS011;25972;51.854;4.534;2023-12-20T13:06:48;16.48;;;15.15;;
40252;SDS011;25972;51.854;4.534;2023-12-20T13:09:15;26.85;;;16.63;;
40252;SDS011;25972;51.854;4.534;2023-12-20T13:11:42;22.27;;;16.58;;
40252;SDS011;25972;51.854;4.534;2023-12-20T13:14:08;15.95;;;14.70;;
40252;SDS011;25972;51.854;4.534;2023-12-20T13:16:39;17.25;;;15.45;;
40252;SDS011;25972;51.854;4.534;2023-12-20T13:19:05;18.02;;;16.08;;
40252;SDS011;25972;51.854;4.534;2023-12-20T13:21:31;17.40;;;15.70;;
40252;SDS011;25972;51.854;4.534;2023-12-20T13:23:57;16.70;;;15.40;;
40252;SDS011;25972;51.854;4.534;2023-12-20T13:26:25;28.77;;;15.57;;
40252;SDS011;25972;51.854;4.534;2023-12-20T13:28:52;20.63;;;16.38;;
40252;SDS011;25972;51.854;4.534;2023-12-20T13:31:19;16.80;;;15.35;;
40252;SDS011;25972;51.854;4.534;2023-12-20T13:33:46;22.98;;;16.85;;
40252;SDS011;25972;51.854;4.534;2023-12-20T13:36:12;27.73;;;16.17;;
40252;SDS011;25972;51.854;4.534;2023-12-20T13:38:38;17.60;;;15.85;;
40252;SDS011;25972;51.854;4.534;2023-12-20T13:41:04;20.90;;;15.85;;
40252;SDS011;25972;51.854;4.534;2023-12-20T13:43:31;22.63;;;16.58;;
40252;SDS011;25972;51.854;4.534;2023-12-20T13:45:57;17.15;;;15.68;;
40252;SDS011;25972;51.854;4.534;2023-12-20T13:48:23;16.98;;;15.32;;
40252;SDS011;25972;51.854;4.534;2023-12-20T13:50:49;18.63;;;15.75;;
40252;SDS011;25972;51.854;4.534;2023-12-20T13:53:15;24.20;;;16.30;;
40252;SDS011;25972;51.854;4.534;2023-12-20T13:55:42;17.67;;;15.93;;
40252;SDS011;25972;51.854;4.534;2023-12-20T13:58:07;19.52;;;16.17;;
40252;SDS011;25972;51.854;4.534;2023-12-20T14:00:36;17.02;;;15.63;;
40252;SDS011;25972;51.854;4.534;2023-12-20T14:03:03;17.38;;;15.85;;
40252;SDS011;25972;51.854;4.534;2023-12-20T14:05:29;22.85;;;16.60;;
40252;SDS011;25972;51.854;4.534;2023-12-20T14:07:56;18.40;;;16.63;;
40252;SDS011;25972;51.854;4.534;2023-12-20T14:10:25;17.20;;;15.68;;
40252;SDS011;25972;51.854;4.534;2023-12-20T14:12:51;16.70;;;15.07;;
40252;SDS011;25972;51.854;4.534;2023-12-20T14:15:18;17.95;;;16.05;;
40252;SDS011;25972;51.854;4.534;2023-12-20T14:17:46;18.52;;;16.52;;
40252;SDS011;25972;51.854;4.534;2023-12-20T14:20:12;16.83;;;15.35;;
40252;SDS011;25972;51.854;4.534;2023-12-20T14:22:38;17.55;;;15.63;;
40252;SDS011;25972;51.854;4.534;2023-12-20T14:25:10;19.83;;;15.82;;